KBWD/BWD METAR and TAF weather

Enter ICAO airport designator
Station Type Date Time Source
KBWD METAR 2019/02/20 06:55 UTC NOAA

KBWD 200655Z AUTO 30007KT 10SM OVC008 02/01 A2996 RMK AO1


Station Type Date Time Source
KBWD Decoded METAR 2019/02/20 06:55 UTC NOAA

Brownwood, Brownwood Regional Airport, TX, United States (KBWD) 31-48N 098-57W
Feb 20, 2019 - 01:55 AM EST / 2019.02.20 0655 UTC
Wind: from the WNW (300 degrees) at 8 MPH (7 KT):0
Visibility: 10 mile(s):0
Sky conditions: overcast
Temperature: 35 F (2 C)
Windchill: 28 F (-2 C):1
Dew Point: 33 F (1 C)
Relative Humidity: 93%
Pressure (altimeter): 29.96 in. Hg (1014 hPa)
ob: KBWD 200655Z AUTO 30007KT 10SM OVC008 02/01 A2996 RMK AO1
cycle: 7

Station Type Date Time Source
KBWD TAF UTC NOAA

Error!


Example: see airport list